sensor_id;sensor_type;location;lat;lon;timestamp;P1;durP1;ratioP1;P2;durP2;ratioP2
29302;SDS011;60019;45.556;12.004;2023-10-31T00:01:25;12.10;;;5.57;;
29302;SDS011;60019;45.556;12.004;2023-10-31T00:07:27;14.82;;;5.72;;
29302;SDS011;60019;45.556;12.004;2023-10-31T00:13:30;12.13;;;4.60;;
29302;SDS011;60019;45.556;12.004;2023-10-31T00:19:31;8.05;;;4.32;;
29302;SDS011;60019;45.556;12.004;2023-10-31T00:25:33;12.45;;;4.97;;
29302;SDS011;60019;45.556;12.004;2023-10-31T00:31:35;12.23;;;4.10;;
29302;SDS011;60019;45.556;12.004;2023-10-31T00:37:37;10.45;;;4.15;;
29302;SDS011;60019;45.556;12.004;2023-10-31T00:43:40;9.27;;;4.35;;
29302;SDS011;60019;45.556;12.004;2023-10-31T00:49:42;12.00;;;4.35;;
29302;SDS011;60019;45.556;12.004;2023-10-31T00:55:43;11.60;;;4.22;;
29302;SDS011;60019;45.556;12.004;2023-10-31T01:01:45;11.10;;;3.72;;
29302;SDS011;60019;45.556;12.004;2023-10-31T01:07:47;6.20;;;3.50;;
29302;SDS011;60019;45.556;12.004;2023-10-31T01:13:49;7.40;;;3.25;;
29302;SDS011;60019;45.556;12.004;2023-10-31T01:19:51;6.93;;;2.95;;
29302;SDS011;60019;45.556;12.004;2023-10-31T01:25:53;8.00;;;2.83;;
29302;SDS011;60019;45.556;12.004;2023-10-31T01:31:55;9.93;;;3.63;;
29302;SDS011;60019;45.556;12.004;2023-10-31T01:37:57;6.25;;;2.63;;
29302;SDS011;60019;45.556;12.004;2023-10-31T01:43:59;5.47;;;2.55;;
29302;SDS011;60019;45.556;12.004;2023-10-31T01:50:00;6.10;;;2.45;;
29302;SDS011;60019;45.556;12.004;2023-10-31T01:56:03;4.95;;;2.08;;
29302;SDS011;60019;45.556;12.004;2023-10-31T02:02:05;7.78;;;2.92;;
29302;SDS011;60019;45.556;12.004;2023-10-31T02:08:07;6.03;;;2.60;;
29302;SDS011;60019;45.556;12.004;2023-10-31T02:14:09;3.85;;;2.13;;
29302;SDS011;60019;45.556;12.004;2023-10-31T02:20:11;3.92;;;2.17;;
29302;SDS011;60019;45.556;12.004;2023-10-31T02:26:13;4.13;;;2.00;;
29302;SDS011;60019;45.556;12.004;2023-10-31T02:32:15;5.15;;;1.70;;
29302;SDS011;60019;45.556;12.004;2023-10-31T02:38:16;5.43;;;2.63;;
29302;SDS011;60019;45.556;12.004;2023-10-31T02:44:18;3.03;;;1.92;;
29302;SDS011;60019;45.556;12.004;2023-10-31T02:50:22;2.88;;;1.83;;
29302;SDS011;60019;45.556;12.004;2023-10-31T02:56:23;5.10;;;2.13;;
29302;SDS011;60019;45.556;12.004;2023-10-31T03:02:26;4.00;;;2.40;;
29302;SDS011;60019;45.556;12.004;2023-10-31T03:08:28;4.25;;;2.42;;
29302;SDS011;60019;45.556;12.004;2023-10-31T03:14:30;7.30;;;2.08;;
29302;SDS011;60019;45.556;12.004;2023-10-31T03:20:32;4.38;;;2.20;;
29302;SDS011;60019;45.556;12.004;2023-10-31T03:26:34;2.75;;;1.70;;
29302;SDS011;60019;45.556;12.004;2023-10-31T03:32:36;5.95;;;1.85;;
29302;SDS011;60019;45.556;12.004;2023-10-31T03:38:38;2.80;;;2.05;;
29302;SDS011;60019;45.556;12.004;2023-10-31T03:44:40;4.30;;;2.03;;
29302;SDS011;60019;45.556;12.004;2023-10-31T03:50:42;4.90;;;2.33;;
29302;SDS011;60019;45.556;12.004;2023-10-31T03:56:44;3.05;;;1.88;;
29302;SDS011;60019;45.556;12.004;2023-10-31T04:02:47;4.80;;;1.92;;
29302;SDS011;60019;45.556;12.004;2023-10-31T04:08:49;4.43;;;1.45;;
29302;SDS011;60019;45.556;12.004;2023-10-31T04:14:51;4.05;;;2.10;;
29302;SDS011;60019;45.556;12.004;2023-10-31T04:20:53;2.63;;;1.95;;
29302;SDS011;60019;45.556;12.004;2023-10-31T04:26:55;3.85;;;2.00;;
29302;SDS011;60019;45.556;12.004;2023-10-31T04:32:56;5.28;;;1.70;;
29302;SDS011;60019;45.556;12.004;2023-10-31T04:38:58;1.70;;;1.45;;
29302;SDS011;60019;45.556;12.004;2023-10-31T04:45:00;2.67;;;1.70;;
29302;SDS011;60019;45.556;12.004;2023-10-31T04:51:02;3.92;;;1.95;;
29302;SDS011;60019;45.556;12.004;2023-10-31T04:57:04;3.85;;;1.90;;
29302;SDS011;60019;45.556;12.004;2023-10-31T05:03:05;4.82;;;1.98;;
29302;SDS011;60019;45.556;12.004;2023-10-31T05:09:07;4.15;;;1.92;;
29302;SDS011;60019;45.556;12.004;2023-10-31T05:15:11;3.90;;;1.85;;
29302;SDS011;60019;45.556;12.004;2023-10-31T05:21:12;5.28;;;2.13;;
29302;SDS011;60019;45.556;12.004;2023-10-31T05:27:14;3.33;;;1.85;;
29302;SDS011;60019;45.556;12.004;2023-10-31T05:33:16;4.03;;;1.63;;
29302;SDS011;60019;45.556;12.004;2023-10-31T05:39:18;5.80;;;2.00;;
29302;SDS011;60019;45.556;12.004;2023-10-31T05:45:19;5.57;;;2.35;;
29302;SDS011;60019;45.556;12.004;2023-10-31T05:51:21;6.72;;;1.85;;
29302;SDS011;60019;45.556;12.004;2023-10-31T05:57:26;7.22;;;2.38;;
29302;SDS011;60019;45.556;12.004;2023-10-31T06:03:28;4.95;;;2.17;;
29302;SDS011;60019;45.556;12.004;2023-10-31T06:09:29;7.90;;;3.55;;
29302;SDS011;60019;45.556;12.004;2023-10-31T06:15:33;6.35;;;2.78;;
29302;SDS011;60019;45.556;12.004;2023-10-31T06:21:35;3.95;;;2.38;;
29302;SDS011;60019;45.556;12.004;2023-10-31T06:27:37;7.30;;;2.97;;
29302;SDS011;60019;45.556;12.004;2023-10-31T06:33:39;7.60;;;2.85;;
29302;SDS011;60019;45.556;12.004;2023-10-31T06:39:40;3.92;;;2.40;;
29302;SDS011;60019;45.556;12.004;2023-10-31T06:45:42;4.78;;;2.20;;
29302;SDS011;60019;45.556;12.004;2023-10-31T06:51:44;4.28;;;2.30;;
29302;SDS011;60019;45.556;12.004;2023-10-31T06:57:46;8.23;;;1.77;;
29302;SDS011;60019;45.556;12.004;2023-10-31T07:03:48;6.28;;;2.08;;
29302;SDS011;60019;45.556;12.004;2023-10-31T07:09:49;5.97;;;2.13;;
29302;SDS011;60019;45.556;12.004;2023-10-31T07:15:51;5.30;;;2.08;;
29302;SDS011;60019;45.556;12.004;2023-10-31T07:21:53;6.30;;;2.30;;
29302;SDS011;60019;45.556;12.004;2023-10-31T07:27:55;4.68;;;2.22;;
29302;SDS011;60019;45.556;12.004;2023-10-31T07:33:57;7.40;;;2.40;;
29302;SDS011;60019;45.556;12.004;2023-10-31T07:39:59;4.88;;;2.22;;
29302;SDS011;60019;45.556;12.004;2023-10-31T07:46:00;5.10;;;2.20;;
29302;SDS011;60019;45.556;12.004;2023-10-31T07:52:02;5.88;;;2.50;;
29302;SDS011;60019;45.556;12.004;2023-10-31T07:58:04;6.35;;;2.30;;
29302;SDS011;60019;45.556;12.004;2023-10-31T08:04:06;5.07;;;2.25;;
29302;SDS011;60019;45.556;12.004;2023-10-31T08:10:08;4.07;;;2.35;;
29302;SDS011;60019;45.556;12.004;2023-10-31T08:16:10;5.10;;;2.28;;
29302;SDS011;60019;45.556;12.004;2023-10-31T08:22:11;4.45;;;1.80;;
29302;SDS011;60019;45.556;12.004;2023-10-31T08:28:13;4.65;;;2.20;;
29302;SDS011;60019;45.556;12.004;2023-10-31T08:34:15;3.42;;;1.75;;
29302;SDS011;60019;45.556;12.004;2023-10-31T08:40:17;1.83;;;1.58;;
29302;SDS011;60019;45.556;12.004;2023-10-31T08:46:18;4.43;;;2.03;;
29302;SDS011;60019;45.556;12.004;2023-10-31T08:52:20;6.60;;;2.50;;
29302;SDS011;60019;45.556;12.004;2023-10-31T08:58:23;2.25;;;1.33;;
29302;SDS011;60019;45.556;12.004;2023-10-31T09:04:25;3.97;;;1.70;;
29302;SDS011;60019;45.556;12.004;2023-10-31T09:10:26;2.78;;;1.40;;
29302;SDS011;60019;45.556;12.004;2023-10-31T09:16:28;4.30;;;1.67;;
29302;SDS011;60019;45.556;12.004;2023-10-31T09:22:30;5.25;;;1.75;;
29302;SDS011;60019;45.556;12.004;2023-10-31T09:28:32;4.30;;;1.38;;
29302;SDS011;60019;45.556;12.004;2023-10-31T09:34:33;6.18;;;1.73;;
29302;SDS011;60019;45.556;12.004;2023-10-31T09:40:36;2.35;;;1.48;;
29302;SDS011;60019;45.556;12.004;2023-10-31T09:46:38;3.47;;;1.30;;
29302;SDS011;60019;45.556;12.004;2023-10-31T09:52:41;1.48;;;1.05;;
29302;SDS011;60019;45.556;12.004;2023-10-31T09:58:43;1.42;;;1.08;;
29302;SDS011;60019;45.556;12.004;2023-10-31T10:04:45;1.38;;;0.98;;
29302;SDS011;60019;45.556;12.004;2023-10-31T10:10:47;1.30;;;0.85;;
29302;SDS011;60019;45.556;12.004;2023-10-31T10:16:50;0.90;;;0.80;;
29302;SDS011;60019;45.556;12.004;2023-10-31T10:22:51;1.08;;;0.90;;
29302;SDS011;60019;45.556;12.004;2023-10-31T10:28:53;2.88;;;1.35;;
29302;SDS011;60019;45.556;12.004;2023-10-31T10:34:55;2.08;;;0.90;;
29302;SDS011;60019;45.556;12.004;2023-10-31T10:40:57;1.13;;;0.80;;
29302;SDS011;60019;45.556;12.004;2023-10-31T10:47:00;1.80;;;0.57;;
29302;SDS011;60019;45.556;12.004;2023-10-31T10:53:07;2.30;;;0.60;;
29302;SDS011;60019;45.556;12.004;2023-10-31T10:59:14;0.77;;;0.77;;
29302;SDS011;60019;45.556;12.004;2023-10-31T11:05:19;0.70;;;0.70;;
29302;SDS011;60019;45.556;12.004;2023-10-31T11:11:22;1.02;;;0.70;;
29302;SDS011;60019;45.556;12.004;2023-10-31T11:17:24;0.82;;;0.82;;
29302;SDS011;60019;45.556;12.004;2023-10-31T11:23:27;1.58;;;0.82;;
29302;SDS011;60019;45.556;12.004;2023-10-31T11:29:32;2.08;;;0.70;;
29302;SDS011;60019;45.556;12.004;2023-10-31T11:35:35;0.85;;;0.70;;
29302;SDS011;60019;45.556;12.004;2023-10-31T11:41:40;0.90;;;0.90;;
29302;SDS011;60019;45.556;12.004;2023-10-31T11:53:49;0.60;;;0.60;;
29302;SDS011;60019;45.556;12.004;2023-10-31T11:59:53;0.77;;;0.70;;
29302;SDS011;60019;45.556;12.004;2023-10-31T12:05:58;0.75;;;0.60;;
29302;SDS011;60019;45.556;12.004;2023-10-31T12:12:04;2.33;;;0.88;;
29302;SDS011;60019;45.556;12.004;2023-10-31T12:18:06;9.32;;;2.88;;
29302;SDS011;60019;45.556;12.004;2023-10-31T12:24:09;1.55;;;1.20;;
29302;SDS011;60019;45.556;12.004;2023-10-31T12:30:20;2.67;;;1.58;;
29302;SDS011;60019;45.556;12.004;2023-10-31T12:36:27;2.63;;;0.88;;
29302;SDS011;60019;45.556;12.004;2023-10-31T12:42:31;0.95;;;0.80;;
29302;SDS011;60019;45.556;12.004;2023-10-31T12:48:37;0.73;;;0.60;;
29302;SDS011;60019;45.556;12.004;2023-10-31T12:54:39;1.95;;;1.00;;
29302;SDS011;60019;45.556;12.004;2023-10-31T13:00:40;1.50;;;1.05;;
29302;SDS011;60019;45.556;12.004;2023-10-31T13:06:54;0.90;;;0.75;;
29302;SDS011;60019;45.556;12.004;2023-10-31T13:12:55;6.32;;;1.20;;
29302;SDS011;60019;45.556;12.004;2023-10-31T13:18:57;2.30;;;0.93;;
29302;SDS011;60019;45.556;12.004;2023-10-31T13:25:01;1.15;;;1.05;;
29302;SDS011;60019;45.556;12.004;2023-10-31T13:31:05;1.98;;;1.10;;
29302;SDS011;60019;45.556;12.004;2023-10-31T13:37:07;2.00;;;0.93;;
29302;SDS011;60019;45.556;12.004;2023-10-31T13:43:09;0.65;;;0.65;;
29302;SDS011;60019;45.556;12.004;2023-10-31T13:49:11;1.58;;;1.08;;
29302;SDS011;60019;45.556;12.004;2023-10-31T13:55:13;2.72;;;0.95;;
29302;SDS011;60019;45.556;12.004;2023-10-31T14:01:15;0.75;;;0.70;;
29302;SDS011;60019;45.556;12.004;2023-10-31T14:07:26;4.15;;;2.20;;
29302;SDS011;60019;45.556;12.004;2023-10-31T14:13:28;1.65;;;1.20;;
29302;SDS011;60019;45.556;12.004;2023-10-31T14:19:29;1.17;;;1.00;;
29302;SDS011;60019;45.556;12.004;2023-10-31T14:25:31;1.45;;;1.10;;
29302;SDS011;60019;45.556;12.004;2023-10-31T14:31:37;1.50;;;1.00;;
29302;SDS011;60019;45.556;12.004;2023-10-31T14:37:39;5.07;;;0.90;;
29302;SDS011;60019;45.556;12.004;2023-10-31T14:43:41;1.60;;;1.00;;
29302;SDS011;60019;45.556;12.004;2023-10-31T14:49:43;0.65;;;0.65;;
29302;SDS011;60019;45.556;12.004;2023-10-31T14:55:45;1.13;;;1.00;;
29302;SDS011;60019;45.556;12.004;2023-10-31T15:01:47;1.13;;;0.60;;
29302;SDS011;60019;45.556;12.004;2023-10-31T15:07:49;1.75;;;0.80;;
29302;SDS011;60019;45.556;12.004;2023-10-31T15:13:53;0.80;;;0.80;;
29302;SDS011;60019;45.556;12.004;2023-10-31T15:19:55;0.80;;;0.80;;
29302;SDS011;60019;45.556;12.004;2023-10-31T15:25:57;2.15;;;0.60;;
29302;SDS011;60019;45.556;12.004;2023-10-31T15:31:59;2.08;;;0.90;;
29302;SDS011;60019;45.556;12.004;2023-10-31T15:38:01;1.27;;;0.80;;
29302;SDS011;60019;45.556;12.004;2023-10-31T15:44:03;1.13;;;0.90;;
29302;SDS011;60019;45.556;12.004;2023-10-31T15:50:05;1.55;;;0.80;;
29302;SDS011;60019;45.556;12.004;2023-10-31T15:56:07;1.42;;;0.82;;
29302;SDS011;60019;45.556;12.004;2023-10-31T16:02:10;1.00;;;0.70;;
29302;SDS011;60019;45.556;12.004;2023-10-31T16:08:12;0.93;;;0.80;;
29302;SDS011;60019;45.556;12.004;2023-10-31T16:14:13;1.10;;;1.00;;
29302;SDS011;60019;45.556;12.004;2023-10-31T16:20:22;2.15;;;1.20;;
29302;SDS011;60019;45.556;12.004;2023-10-31T16:26:24;1.63;;;1.00;;
29302;SDS011;60019;45.556;12.004;2023-10-31T16:32:26;3.30;;;1.90;;
29302;SDS011;60019;45.556;12.004;2023-10-31T16:38:27;3.50;;;2.50;;
29302;SDS011;60019;45.556;12.004;2023-10-31T16:44:29;2.85;;;2.05;;
29302;SDS011;60019;45.556;12.004;2023-10-31T16:50:31;3.25;;;2.20;;
29302;SDS011;60019;45.556;12.004;2023-10-31T16:56:33;3.13;;;2.22;;
29302;SDS011;60019;45.556;12.004;2023-10-31T17:02:35;3.25;;;2.05;;
29302;SDS011;60019;45.556;12.004;2023-10-31T17:08:36;2.20;;;2.00;;
29302;SDS011;60019;45.556;12.004;2023-10-31T17:14:38;4.55;;;2.35;;
29302;SDS011;60019;45.556;12.004;2023-10-31T17:20:40;2.53;;;2.08;;
29302;SDS011;60019;45.556;12.004;2023-10-31T17:26:42;2.80;;;2.55;;
29302;SDS011;60019;45.556;12.004;2023-10-31T17:32:43;3.72;;;2.90;;
29302;SDS011;60019;45.556;12.004;2023-10-31T17:38:45;3.83;;;2.92;;
29302;SDS011;60019;45.556;12.004;2023-10-31T17:44:47;7.53;;;4.45;;
29302;SDS011;60019;45.556;12.004;2023-10-31T17:50:48;5.05;;;3.50;;
29302;SDS011;60019;45.556;12.004;2023-10-31T17:56:50;4.72;;;3.30;;
29302;SDS011;60019;45.556;12.004;2023-10-31T18:02:52;9.48;;;7.40;;
29302;SDS011;60019;45.556;12.004;2023-10-31T18:08:58;89.85;;;47.88;;
29302;SDS011;60019;45.556;12.004;2023-10-31T18:15:00;93.85;;;48.45;;
29302;SDS011;60019;45.556;12.004;2023-10-31T18:21:02;68.07;;;36.10;;
29302;SDS011;60019;45.556;12.004;2023-10-31T18:27:04;55.13;;;29.98;;
29302;SDS011;60019;45.556;12.004;2023-10-31T18:33:08;53.72;;;29.15;;
29302;SDS011;60019;45.556;12.004;2023-10-31T18:39:10;44.95;;;26.23;;
29302;SDS011;60019;45.556;12.004;2023-10-31T18:45:12;33.85;;;20.98;;
29302;SDS011;60019;45.556;12.004;2023-10-31T18:51:16;26.60;;;17.67;;
29302;SDS011;60019;45.556;12.004;2023-10-31T18:57:19;26.35;;;17.60;;
29302;SDS011;60019;45.556;12.004;2023-10-31T19:03:22;24.80;;;16.55;;
29302;SDS011;60019;45.556;12.004;2023-10-31T19:09:24;22.35;;;14.35;;
29302;SDS011;60019;45.556;12.004;2023-10-31T19:15:26;19.02;;;12.55;;
29302;SDS011;60019;45.556;12.004;2023-10-31T19:21:29;20.35;;;11.98;;
29302;SDS011;60019;45.556;12.004;2023-10-31T19:27:31;16.80;;;11.48;;
29302;SDS011;60019;45.556;12.004;2023-10-31T19:33:33;15.45;;;9.85;;
29302;SDS011;60019;45.556;12.004;2023-10-31T19:39:34;17.30;;;11.85;;
29302;SDS011;60019;45.556;12.004;2023-10-31T19:45:36;16.45;;;10.02;;
29302;SDS011;60019;45.556;12.004;2023-10-31T19:51:41;15.40;;;10.82;;
29302;SDS011;60019;45.556;12.004;2023-10-31T19:57:43;13.85;;;9.20;;
29302;SDS011;60019;45.556;12.004;2023-10-31T20:03:45;11.75;;;8.82;;
29302;SDS011;60019;45.556;12.004;2023-10-31T20:09:47;14.70;;;9.13;;
29302;SDS011;60019;45.556;12.004;2023-10-31T20:15:49;17.15;;;9.18;;
29302;SDS011;60019;45.556;12.004;2023-10-31T20:21:52;13.07;;;8.90;;
29302;SDS011;60019;45.556;12.004;2023-10-31T20:27:54;13.27;;;9.20;;
29302;SDS011;60019;45.556;12.004;2023-10-31T20:33:56;11.60;;;7.78;;
29302;SDS011;60019;45.556;12.004;2023-10-31T20:39:58;12.80;;;8.65;;
29302;SDS011;60019;45.556;12.004;2023-10-31T20:46:00;12.95;;;8.95;;
29302;SDS011;60019;45.556;12.004;2023-10-31T20:52:01;13.65;;;7.80;;
29302;SDS011;60019;45.556;12.004;2023-10-31T20:58:03;11.10;;;7.22;;
29302;SDS011;60019;45.556;12.004;2023-10-31T21:04:05;9.75;;;7.80;;
29302;SDS011;60019;45.556;12.004;2023-10-31T21:10:07;9.80;;;7.50;;
29302;SDS011;60019;45.556;12.004;2023-10-31T21:16:09;10.43;;;6.85;;
29302;SDS011;60019;45.556;12.004;2023-10-31T21:22:11;8.18;;;5.93;;
29302;SDS011;60019;45.556;12.004;2023-10-31T21:28:13;7.40;;;5.47;;
29302;SDS011;60019;45.556;12.004;2023-10-31T21:34:15;8.13;;;5.32;;
29302;SDS011;60019;45.556;12.004;2023-10-31T21:40:17;5.47;;;4.65;;
29302;SDS011;60019;45.556;12.004;2023-10-31T21:46:19;8.38;;;4.47;;
29302;SDS011;60019;45.556;12.004;2023-10-31T21:52:23;5.05;;;4.13;;
29302;SDS011;60019;45.556;12.004;2023-10-31T21:58:25;7.63;;;4.13;;
29302;SDS011;60019;45.556;12.004;2023-10-31T22:04:27;6.50;;;4.38;;
29302;SDS011;60019;45.556;12.004;2023-10-31T22:10:29;6.40;;;4.03;;
29302;SDS011;60019;45.556;12.004;2023-10-31T22:16:31;4.25;;;3.40;;
29302;SDS011;60019;45.556;12.004;2023-10-31T22:22:33;5.22;;;3.60;;
29302;SDS011;60019;45.556;12.004;2023-10-31T22:28:35;5.60;;;3.78;;
29302;SDS011;60019;45.556;12.004;2023-10-31T22:34:37;5.18;;;4.10;;
29302;SDS011;60019;45.556;12.004;2023-10-31T22:40:39;4.25;;;3.40;;
29302;SDS011;60019;45.556;12.004;2023-10-31T22:46:44;6.93;;;3.15;;
29302;SDS011;60019;45.556;12.004;2023-10-31T22:52:46;3.55;;;2.97;;
29302;SDS011;60019;45.556;12.004;2023-10-31T22:58:47;3.83;;;2.67;;
29302;SDS011;60019;45.556;12.004;2023-10-31T23:04:49;4.10;;;3.10;;
29302;SDS011;60019;45.556;12.004;2023-10-31T23:10:54;4.28;;;2.58;;
29302;SDS011;60019;45.556;12.004;2023-10-31T23:16:56;3.65;;;2.55;;
29302;SDS011;60019;45.556;12.004;2023-10-31T23:22:57;3.45;;;2.53;;
29302;SDS011;60019;45.556;12.004;2023-10-31T23:28:59;3.58;;;2.80;;
29302;SDS011;60019;45.556;12.004;2023-10-31T23:35:01;4.18;;;3.10;;
29302;SDS011;60019;45.556;12.004;2023-10-31T23:41:03;4.68;;;2.63;;
29302;SDS011;60019;45.556;12.004;2023-10-31T23:47:05;3.80;;;2.80;;
29302;SDS011;60019;45.556;12.004;2023-10-31T23:53:07;3.40;;;2.55;;
29302;SDS011;60019;45.556;12.004;2023-10-31T23:59:09;6.63;;;3.00;;
